createdAt,value
2019-02-11T00:01:54.432Z,5.63
2019-02-11T00:04:21.376Z,5.33
2019-02-11T00:06:48.278Z,5.70
2019-02-11T00:09:15.220Z,5.97
2019-02-11T00:11:42.126Z,6.33
2019-02-11T00:14:09.144Z,5.50
2019-02-11T00:16:36.053Z,6.30
2019-02-11T00:19:02.990Z,6.90
2019-02-11T00:21:29.895Z,5.93
2019-02-11T00:23:56.785Z,5.60
2019-02-11T00:26:23.707Z,5.20
2019-02-11T00:28:50.629Z,4.80
2019-02-11T00:31:17.658Z,5.67
2019-02-11T00:33:44.582Z,4.57
2019-02-11T00:36:11.528Z,5.47
2019-02-11T00:38:38.484Z,5.60
2019-02-11T00:41:05.513Z,5.73
2019-02-11T00:43:32.444Z,5.10
2019-02-11T00:45:59.382Z,5.67
2019-02-11T00:48:26.296Z,5.30
2019-02-11T00:50:53.235Z,4.67
2019-02-11T00:53:20.135Z,5.23
2019-02-11T00:55:47.090Z,4.33
2019-02-11T00:58:13.978Z,4.90
2019-02-11T01:00:40.910Z,3.60
2019-02-11T01:03:07.858Z,6.07
2019-02-11T01:05:34.828Z,6.10
2019-02-11T01:08:01.711Z,4.67
2019-02-11T01:10:28.659Z,4.37
2019-02-11T01:12:55.604Z,3.77
2019-02-11T01:15:22.547Z,3.47
2019-02-11T01:17:49.466Z,3.57
2019-02-11T01:20:16.389Z,4.23
2019-02-11T01:22:43.326Z,3.53
2019-02-11T01:25:10.301Z,3.87
2019-02-11T01:27:37.200Z,2.80
2019-02-11T01:30:05.776Z,3.17
2019-02-11T01:32:32.738Z,3.60
2019-02-11T01:34:59.645Z,2.50
2019-02-11T01:37:26.566Z,2.60
2019-02-11T01:39:53.472Z,3.40
2019-02-11T01:42:20.434Z,2.70
2019-02-11T01:44:47.330Z,2.97
2019-02-11T01:47:14.251Z,2.57
2019-02-11T01:49:41.152Z,2.70
2019-02-11T01:52:08.082Z,3.07
2019-02-11T01:54:34.980Z,2.63
2019-02-11T01:57:01.924Z,2.63
2019-02-11T01:59:29.118Z,3.40
2019-02-11T02:01:56.054Z,3.00
2019-02-11T02:04:22.965Z,3.57
2019-02-11T02:06:49.915Z,2.57
2019-02-11T02:09:16.868Z,2.43
2019-02-11T02:11:43.793Z,3.90
2019-02-11T02:14:10.710Z,3.10
2019-02-11T02:16:37.677Z,2.50
2019-02-11T02:19:04.569Z,4.27
2019-02-11T02:21:31.505Z,3.50
2019-02-11T02:23:58.432Z,3.07
2019-02-11T02:26:25.351Z,2.23
2019-02-11T02:28:52.303Z,3.50
2019-02-11T02:31:19.448Z,2.27
2019-02-11T02:33:46.388Z,2.90
2019-02-11T02:36:13.360Z,2.53
2019-02-11T02:38:40.339Z,2.87
2019-02-11T02:41:07.241Z,2.63
2019-02-11T02:43:34.166Z,3.30
2019-02-11T02:46:01.081Z,2.77
2019-02-11T02:48:28.055Z,3.80
2019-02-11T02:50:54.964Z,2.73
2019-02-11T02:53:21.895Z,2.30
2019-02-11T02:55:48.828Z,2.77
2019-02-11T02:58:15.807Z,2.83
2019-02-11T03:00:42.722Z,2.30
2019-02-11T03:03:09.694Z,1.93
2019-02-11T03:05:36.608Z,2.47
2019-02-11T03:08:03.650Z,2.50
2019-02-11T03:10:30.622Z,2.67
2019-02-11T03:12:57.630Z,3.30
2019-02-11T03:15:24.568Z,2.63
2019-02-11T03:17:51.519Z,2.80
2019-02-11T03:20:18.452Z,2.90
2019-02-11T03:22:45.423Z,2.40
2019-02-11T03:25:12.382Z,2.43
2019-02-11T03:27:39.547Z,2.50
2019-02-11T03:30:06.540Z,2.33
2019-02-11T03:32:33.512Z,1.97
2019-02-11T03:35:00.448Z,1.97
2019-02-11T03:37:27.405Z,1.83
2019-02-11T03:39:54.334Z,1.60
2019-02-11T03:42:21.268Z,1.67
2019-02-11T03:44:48.314Z,1.77
2019-02-11T03:47:15.272Z,1.33
2019-02-11T03:49:42.226Z,2.13
2019-02-11T03:52:09.280Z,2.50
2019-02-11T03:54:36.205Z,2.00
2019-02-11T03:57:03.139Z,1.40
2019-02-11T03:59:30.076Z,1.60
2019-02-11T04:01:57.019Z,1.90
2019-02-11T04:04:23.963Z,0.90
2019-02-11T04:06:51.182Z,1.47
2019-02-11T04:09:18.125Z,1.17
2019-02-11T04:11:45.074Z,1.77
2019-02-11T04:14:12.050Z,1.40
2019-02-11T04:16:38.978Z,1.80
2019-02-11T04:19:05.967Z,1.83
2019-02-11T04:21:32.861Z,1.83
2019-02-11T04:23:59.826Z,1.63
2019-02-11T04:26:26.752Z,1.70
2019-02-11T04:28:53.743Z,1.70
2019-02-11T04:31:20.673Z,1.53
2019-02-11T04:33:47.641Z,1.40
2019-02-11T04:36:14.584Z,1.80
2019-02-11T04:38:41.545Z,1.80
2019-02-11T04:41:08.552Z,1.60
2019-02-11T04:43:35.497Z,1.80
2019-02-11T04:46:02.490Z,1.70
2019-02-11T04:48:29.428Z,1.87
2019-02-11T04:50:56.390Z,1.57
2019-02-11T04:53:23.306Z,2.13
2019-02-11T04:55:50.272Z,1.63
2019-02-11T04:58:17.206Z,2.00
2019-02-11T05:00:44.168Z,1.90
2019-02-11T05:03:11.131Z,1.60
2019-02-11T05:05:38.127Z,1.73
2019-02-11T05:08:05.073Z,2.03
2019-02-11T05:10:32.026Z,2.10
2019-02-11T05:12:59.068Z,1.93
2019-02-11T05:15:26.042Z,1.70
2019-02-11T05:17:52.981Z,1.50
2019-02-11T05:20:19.957Z,1.80
2019-02-11T05:22:46.883Z,1.47
2019-02-11T05:25:13.864Z,1.33
2019-02-11T05:27:40.794Z,1.80
2019-02-11T05:30:08.778Z,1.83
2019-02-11T05:32:35.697Z,2.80
2019-02-11T05:35:03.081Z,1.87
2019-02-11T05:37:30.037Z,2.10
2019-02-11T05:39:56.997Z,1.20
2019-02-11T05:42:23.916Z,2.10
2019-02-11T05:44:54.062Z,2.20
2019-02-11T05:47:19.771Z,2.47
2019-02-11T05:49:46.711Z,2.40
2019-02-11T05:52:13.733Z,2.10
2019-02-11T05:54:40.690Z,2.03
2019-02-11T05:57:07.644Z,2.23
2019-02-11T05:59:34.558Z,3.67
2019-02-11T06:02:01.566Z,2.57
2019-02-11T06:04:28.495Z,2.27
2019-02-11T06:06:55.421Z,2.80
2019-02-11T06:09:23.266Z,2.20
2019-02-11T06:11:50.433Z,2.00
2019-02-11T06:14:17.363Z,1.83
2019-02-11T06:16:44.315Z,2.17
2019-02-11T06:19:11.221Z,1.90
2019-02-11T06:21:39.406Z,1.93
2019-02-11T06:24:06.313Z,2.20
2019-02-11T06:26:33.322Z,1.80
2019-02-11T06:29:00.238Z,1.50
2019-02-11T06:31:27.224Z,2.03
2019-02-11T06:33:54.149Z,2.67
2019-02-11T06:36:21.100Z,2.40
2019-02-11T06:38:48.037Z,2.40
2019-02-11T06:41:15.021Z,2.17
2019-02-11T06:43:41.993Z,2.20
2019-02-11T06:46:08.943Z,2.70
2019-02-11T06:48:35.881Z,2.00
2019-02-11T06:51:02.883Z,1.80
2019-02-11T06:53:29.807Z,2.30
2019-02-11T06:55:56.821Z,2.13
2019-02-11T06:58:23.740Z,2.73
2019-02-11T07:00:50.712Z,2.33
2019-02-11T07:03:17.672Z,2.97
2019-02-11T07:05:44.642Z,2.57
2019-02-11T07:08:12.011Z,2.83
2019-02-11T07:10:38.923Z,2.93
2019-02-11T07:13:05.931Z,3.63
2019-02-11T07:15:32.888Z,2.23
2019-02-11T07:17:59.835Z,2.33
2019-02-11T07:20:26.803Z,2.93
2019-02-11T07:22:53.918Z,1.70
2019-02-11T07:25:20.820Z,2.10
2019-02-11T07:27:47.787Z,2.13
2019-02-11T07:30:14.819Z,2.60
2019-02-11T07:32:41.774Z,2.37
2019-02-11T07:35:08.720Z,2.27
2019-02-11T07:37:35.719Z,2.27
2019-02-11T07:40:02.679Z,2.60
2019-02-11T09:25:20.965Z,3.20
2019-02-11T09:35:07.972Z,2.85
2019-02-11T09:40:01.454Z,3.57
2019-02-11T09:42:28.354Z,2.97
2019-02-11T10:19:13.706Z,3.20
2019-02-11T10:21:40.645Z,2.93
2019-02-11T10:24:07.576Z,3.07
2019-02-11T10:26:34.582Z,2.60
2019-02-11T10:29:01.579Z,3.67
2019-02-11T10:31:28.547Z,3.80
2019-02-11T10:33:55.435Z,2.80
2019-02-11T10:36:22.382Z,2.70
2019-02-11T10:38:49.298Z,3.43
2019-02-11T10:41:17.402Z,3.17
2019-02-11T10:43:44.314Z,3.20
2019-02-11T10:46:11.273Z,2.20
2019-02-11T10:48:38.224Z,3.20
2019-02-11T10:51:05.230Z,3.00
2019-02-11T10:53:32.138Z,3.30
2019-02-11T10:55:59.215Z,3.63
2019-02-11T10:58:26.128Z,2.50
2019-02-11T11:00:53.111Z,3.63
2019-02-11T11:03:20.020Z,2.90
2019-02-11T11:05:46.997Z,2.80
2019-02-11T11:08:14.010Z,3.07
2019-02-11T11:10:40.959Z,3.43
2019-02-11T11:13:08.005Z,2.87
2019-02-11T11:15:34.998Z,2.80
2019-02-11T11:18:01.986Z,2.70
2019-02-11T11:20:29.353Z,3.03
2019-02-11T11:22:56.321Z,2.13
2019-02-11T11:25:23.207Z,3.07
2019-02-11T11:27:50.262Z,2.90
2019-02-11T11:30:17.458Z,2.00
2019-02-11T11:32:44.455Z,1.63
2019-02-11T11:35:12.231Z,2.30
2019-02-11T11:37:39.202Z,0.70
2019-02-11T11:40:07.968Z,1.20
2019-02-11T11:42:34.920Z,2.30
2019-02-11T11:45:01.895Z,1.23
2019-02-11T11:47:28.816Z,1.33
2019-02-11T11:49:55.756Z,1.70
2019-02-11T11:52:22.938Z,1.73
2019-02-11T11:54:49.857Z,1.00
2019-02-11T11:57:16.810Z,1.73
2019-02-11T11:59:43.998Z,1.80
2019-02-11T12:02:15.466Z,2.37
2019-02-11T12:04:39.795Z,2.07
2019-02-11T12:07:07.033Z,1.57
2019-02-11T12:09:33.973Z,2.00
2019-02-11T12:12:01.009Z,3.40
2019-02-11T12:14:27.903Z,1.50
2019-02-11T12:16:57.728Z,1.97
2019-02-11T12:19:23.822Z,2.70
2019-02-11T12:21:50.770Z,3.43
2019-02-11T12:24:17.754Z,2.00
2019-02-11T12:26:44.712Z,1.97
2019-02-11T12:29:11.616Z,2.63
2019-02-11T12:31:38.626Z,2.00
2019-02-11T12:43:52.009Z,2.07
2019-02-11T12:46:18.915Z,2.10
2019-02-11T12:48:45.880Z,2.70
2019-02-11T12:51:12.823Z,2.00
2019-02-11T12:53:39.807Z,1.63
2019-02-11T12:56:06.687Z,2.17
2019-02-11T12:58:33.632Z,1.37
2019-02-11T13:01:00.538Z,1.30
2019-02-11T13:03:27.478Z,1.70
2019-02-11T13:05:54.389Z,3.20
2019-02-11T13:08:21.337Z,1.70
2019-02-11T13:10:48.295Z,1.73
2019-02-11T13:13:15.260Z,1.47
2019-02-11T13:15:59.846Z,2.10
2019-02-11T13:18:11.239Z,1.53
2019-02-11T13:20:38.337Z,2.60
2019-02-11T13:23:05.283Z,1.80
2019-02-11T13:25:32.183Z,1.83
2019-02-11T13:27:59.142Z,1.70
2019-02-11T13:30:26.086Z,1.50
2019-02-11T13:32:53.047Z,1.53
2019-02-11T13:35:20.010Z,1.87
2019-02-11T13:37:46.947Z,1.57
2019-02-11T13:40:13.877Z,1.77
2019-02-11T13:42:40.932Z,1.90
2019-02-11T13:45:11.438Z,2.23
2019-02-11T13:47:51.754Z,2.30
2019-02-11T13:50:07.976Z,1.93
2019-02-11T13:52:35.128Z,2.03
2019-02-11T13:55:02.077Z,1.90
2019-02-11T13:57:29.104Z,2.17
2019-02-11T13:59:56.059Z,2.20
2019-02-11T14:02:22.945Z,2.57
2019-02-11T14:04:50.020Z,1.97
2019-02-11T14:07:16.993Z,1.80
2019-02-11T14:09:43.996Z,2.13
2019-02-11T14:12:10.941Z,1.70
2019-02-11T14:14:37.907Z,2.20
2019-02-11T14:17:04.846Z,2.00
2019-02-11T14:19:31.823Z,1.70
2019-02-11T14:21:58.793Z,1.10
2019-02-11T14:24:25.741Z,2.13
2019-02-11T14:26:52.703Z,2.37
2019-02-11T14:29:19.642Z,1.87
2019-02-11T14:31:46.573Z,2.40
2019-02-11T14:34:13.519Z,2.17
2019-02-11T14:36:43.244Z,1.67
2019-02-11T14:39:11.161Z,1.60
2019-02-11T14:41:38.165Z,1.63
2019-02-11T14:44:05.080Z,1.63
2019-02-11T14:46:32.144Z,1.67
2019-02-11T14:48:59.101Z,1.80
2019-02-11T14:51:26.064Z,2.30
2019-02-11T14:53:52.995Z,1.63
2019-02-11T14:56:20.145Z,2.77
2019-02-11T14:58:47.074Z,1.90
2019-02-11T15:01:14.123Z,1.60
2019-02-11T15:03:41.055Z,1.70
2019-02-11T15:06:08.141Z,2.00
2019-02-11T15:08:35.121Z,1.83
2019-02-11T15:11:02.206Z,1.77
2019-02-11T15:13:29.176Z,2.27
2019-02-11T15:15:56.327Z,2.70
2019-02-11T15:18:23.371Z,1.97
2019-02-11T15:20:53.235Z,2.30
2019-02-11T15:23:22.272Z,2.20
2019-02-11T15:25:49.229Z,1.50
2019-02-11T15:28:16.350Z,1.93
2019-02-11T15:30:43.326Z,2.43
2019-02-11T15:33:10.257Z,2.30
2019-02-11T15:35:37.347Z,3.33
2019-02-11T15:38:04.312Z,3.20
2019-02-11T15:40:31.271Z,2.90
2019-02-11T15:42:58.258Z,3.20
2019-02-11T15:45:25.174Z,2.43
2019-02-11T15:47:52.177Z,3.20
2019-02-11T15:50:21.806Z,2.57
2019-02-11T15:52:48.929Z,2.87
2019-02-11T15:55:16.852Z,2.20
2019-02-11T15:57:43.836Z,1.90
2019-02-11T16:00:15.983Z,2.30
2019-02-11T16:02:43.122Z,1.97
2019-02-11T16:05:15.806Z,2.20
2019-02-11T16:07:38.975Z,2.70
2019-02-11T16:10:07.633Z,1.63
2019-02-11T16:12:34.651Z,2.13
2019-02-11T16:15:01.683Z,1.60
2019-02-11T16:17:28.755Z,1.97
2019-02-11T16:19:55.851Z,1.93
2019-02-11T16:22:22.895Z,3.80
2019-02-11T16:24:49.927Z,2.07
2019-02-11T16:27:16.879Z,1.50
2019-02-11T16:29:46.368Z,1.97
2019-02-11T16:32:13.376Z,2.00
2019-02-11T16:34:42.510Z,1.87
2019-02-11T16:37:09.493Z,3.10
2019-02-11T16:39:36.429Z,2.33
2019-02-11T16:42:03.553Z,1.70
2019-02-11T16:44:30.907Z,1.67
2019-02-11T16:46:57.893Z,2.17
2019-02-11T16:49:24.813Z,1.77
2019-02-11T16:51:51.760Z,4.13
2019-02-11T16:54:18.673Z,1.70
2019-02-11T16:56:45.616Z,1.83
2019-02-11T16:59:12.523Z,2.90
2019-02-11T17:01:39.756Z,2.17
2019-02-11T17:04:06.847Z,2.27
2019-02-11T17:06:35.265Z,2.77
2019-02-11T17:09:02.735Z,2.27
2019-02-11T17:11:29.742Z,2.43
2019-02-11T17:13:59.196Z,2.97
2019-02-11T17:16:26.321Z,2.20
2019-02-11T17:18:53.309Z,1.70
2019-02-11T17:21:20.257Z,2.40
2019-02-11T17:23:47.381Z,1.47
2019-02-11T17:26:14.365Z,1.97
2019-02-11T17:28:42.482Z,2.50
2019-02-11T17:31:09.662Z,2.07
2019-02-11T17:33:36.649Z,2.13
2019-02-11T17:36:03.579Z,2.57
2019-02-11T17:38:30.756Z,1.90
2019-02-11T17:40:57.803Z,1.57
2019-02-11T17:43:24.765Z,2.20
2019-02-11T17:45:51.704Z,2.33
2019-02-11T17:48:19.638Z,2.67
2019-02-11T17:50:46.922Z,2.30
2019-02-11T17:53:16.688Z,2.80
2019-02-11T17:55:45.630Z,2.47
2019-02-11T17:58:12.727Z,2.30
2019-02-11T18:00:44.348Z,2.70
2019-02-11T18:03:11.342Z,4.90
2019-02-11T18:05:38.281Z,2.80
2019-02-11T18:08:05.225Z,2.50
2019-02-11T18:10:32.117Z,2.10
2019-02-11T18:12:59.103Z,2.43
2019-02-11T18:15:26.011Z,2.10
2019-02-11T18:17:52.979Z,2.40
2019-02-11T18:20:19.927Z,3.83
2019-02-11T18:22:46.942Z,1.67
2019-02-11T18:25:13.926Z,2.37
2019-02-11T18:27:40.874Z,3.37
2019-02-11T18:30:09.272Z,2.43
2019-02-11T18:32:36.241Z,2.60
2019-02-11T18:35:04.909Z,1.90
2019-02-11T18:37:31.831Z,3.00
2019-02-11T18:39:58.788Z,3.70
2019-02-11T18:42:25.719Z,2.53
2019-02-11T18:44:52.662Z,2.53
2019-02-11T18:47:19.607Z,2.63
2019-02-11T18:49:46.596Z,2.33
2019-02-11T18:52:13.528Z,3.50
2019-02-11T18:54:40.508Z,3.07
2019-02-11T18:57:07.419Z,2.63
2019-02-11T18:59:34.389Z,3.07
2019-02-11T19:02:01.324Z,3.27
2019-02-11T19:04:28.305Z,3.60
2019-02-11T19:06:55.209Z,3.67
2019-02-11T19:09:22.295Z,3.20
2019-02-11T19:11:49.250Z,3.30
2019-02-11T19:14:16.300Z,3.20
2019-02-11T19:16:43.301Z,2.77
2019-02-11T19:19:10.272Z,2.90
2019-02-11T19:21:37.171Z,3.47
2019-02-11T19:24:04.142Z,2.60
2019-02-11T19:26:31.122Z,3.10
2019-02-11T19:28:58.101Z,2.53
2019-02-11T19:31:25.020Z,2.87
2019-02-11T19:33:51.977Z,2.93
2019-02-11T19:36:18.912Z,3.20
2019-02-11T19:38:45.874Z,2.90
2019-02-11T19:41:12.787Z,4.07
2019-02-11T19:43:39.701Z,3.13
2019-02-11T19:46:06.684Z,2.27
2019-02-11T19:48:33.624Z,2.00
2019-02-11T19:51:00.576Z,2.50
2019-02-11T19:53:27.495Z,1.80
2019-02-11T19:55:54.460Z,2.30
2019-02-11T19:58:21.448Z,2.93
2019-02-11T20:00:48.520Z,3.10
2019-02-11T20:03:15.482Z,2.50
2019-02-11T20:05:42.423Z,2.03
2019-02-11T20:08:09.335Z,2.60
2019-02-11T20:10:36.300Z,2.23
2019-02-11T20:13:03.236Z,3.03
2019-02-11T20:15:30.232Z,2.77
2019-02-11T20:17:57.129Z,2.27
2019-02-11T20:20:24.177Z,2.37
2019-02-11T20:22:51.089Z,1.90
2019-02-11T20:25:18.063Z,2.90
2019-02-11T20:27:45.070Z,2.50
2019-02-11T20:30:13.818Z,2.37
2019-02-11T20:32:40.731Z,2.87
2019-02-11T20:35:07.794Z,3.00
2019-02-11T20:37:34.714Z,3.40
2019-02-11T20:40:03.337Z,2.63
2019-02-11T20:42:30.783Z,2.17
2019-02-11T20:44:58.981Z,3.33
2019-02-11T22:25:26.084Z,2.70
2019-02-11T22:30:19.659Z,2.60
2019-02-11T22:35:13.241Z,2.00
2019-02-11T22:37:40.363Z,2.20
2019-02-11T22:40:07.729Z,1.40
2019-02-11T22:42:34.698Z,2.70
2019-02-11T22:45:01.709Z,2.00
2019-02-11T22:47:28.645Z,1.60
2019-02-11T22:52:22.207Z,2.00
2019-02-11T22:54:49.122Z,2.10
2019-02-11T22:57:16.043Z,1.70
2019-02-11T22:59:42.983Z,1.80
2019-02-11T23:02:09.929Z,2.30
2019-02-11T23:04:36.966Z,2.30
2019-02-11T23:07:03.982Z,2.50
2019-02-11T23:09:30.942Z,1.70
2019-02-11T23:11:57.872Z,1.85
2019-02-11T23:14:24.815Z,2.10
2019-02-11T23:16:51.717Z,1.55
2019-02-11T23:19:18.658Z,1.85
2019-02-11T23:21:45.553Z,2.00
2019-02-11T23:24:12.485Z,2.35
2019-02-11T23:26:39.676Z,1.85
2019-02-11T23:29:07.094Z,2.00
2019-02-11T23:31:34.121Z,1.90
